createdAt,value
2022-11-04T00:01:35.303Z,3.40
2022-11-04T00:04:03.079Z,2.90
2022-11-04T00:06:32.127Z,3.30
2022-11-04T00:09:00.875Z,2.90
2022-11-04T00:11:46.313Z,3.70
2022-11-04T00:14:15.474Z,3.53
2022-11-04T00:17:01.209Z,3.57
2022-11-04T00:19:29.210Z,3.30
2022-11-04T00:22:15.849Z,3.50
2022-11-04T00:25:01.250Z,3.20
2022-11-04T00:27:47.684Z,3.20
2022-11-04T00:30:15.392Z,3.70
2022-11-04T00:33:00.531Z,3.77
2022-11-04T00:35:28.226Z,3.40
2022-11-04T00:37:57.272Z,3.10
2022-11-04T00:40:25.168Z,3.10
2022-11-04T00:42:52.880Z,2.77
2022-11-04T00:45:20.590Z,3.30
2022-11-04T00:47:48.295Z,3.37
2022-11-04T00:50:16.081Z,3.37
2022-11-04T00:52:43.739Z,3.40
2022-11-04T00:55:12.757Z,3.17
2022-11-04T00:57:40.488Z,3.73
2022-11-04T01:00:09.442Z,3.80
2022-11-04T01:02:37.315Z,3.43
2022-11-04T01:05:05.446Z,3.50
2022-11-04T01:07:33.212Z,3.33
2022-11-04T01:10:00.909Z,3.50
2022-11-04T01:12:29.978Z,3.53
2022-11-04T01:14:57.670Z,4.07
2022-11-04T01:17:25.482Z,3.60
2022-11-04T01:19:53.715Z,3.37
2022-11-04T01:22:21.452Z,3.33
2022-11-04T01:24:49.184Z,3.50
2022-11-04T01:27:16.907Z,3.70
2022-11-04T01:29:46.018Z,3.90
2022-11-04T01:32:13.817Z,3.43
2022-11-04T01:34:43.474Z,3.97
2022-11-04T01:37:11.935Z,3.83
2022-11-04T01:39:39.649Z,4.30
2022-11-04T01:42:07.595Z,3.43
2022-11-04T01:44:51.491Z,3.70
2022-11-04T01:47:22.300Z,3.30
2022-11-04T01:49:53.559Z,3.60
2022-11-04T01:52:29.098Z,3.70
2022-11-04T01:55:00.369Z,3.73
2022-11-04T01:57:35.541Z,3.50
2022-11-04T02:00:08.736Z,3.73
2022-11-04T02:02:41.737Z,3.73
2022-11-04T02:05:10.576Z,3.73
2022-11-04T02:08:01.161Z,4.20
2022-11-04T02:10:31.452Z,3.83
2022-11-04T02:13:01.024Z,3.93
2022-11-04T02:15:38.427Z,3.70
2022-11-04T02:18:39.288Z,3.90
2022-11-04T02:21:36.275Z,4.00
2022-11-04T02:24:29.144Z,4.13
2022-11-04T02:27:19.596Z,3.83
2022-11-04T02:30:08.442Z,3.80
2022-11-04T02:32:50.949Z,3.80
2022-11-04T02:35:27.895Z,4.60
2022-11-04T02:38:03.506Z,3.97
2022-11-04T02:40:38.099Z,4.27
2022-11-04T02:43:14.851Z,3.93
2022-11-04T02:45:46.946Z,4.13
2022-11-04T02:48:25.261Z,4.30
2022-11-04T02:50:57.439Z,3.90
2022-11-04T02:53:30.911Z,4.53
2022-11-04T02:56:00.286Z,4.83
2022-11-04T02:58:34.447Z,4.20
2022-11-04T03:01:06.233Z,4.60
2022-11-04T03:03:39.461Z,4.30
2022-11-04T03:06:10.363Z,4.90
2022-11-04T03:08:41.429Z,4.67
2022-11-04T03:11:13.675Z,4.77
2022-11-04T03:13:45.415Z,4.20
2022-11-04T03:16:18.200Z,4.33
2022-11-04T03:18:55.685Z,4.43
2022-11-04T03:21:26.753Z,4.53
2022-11-04T03:23:55.191Z,4.70
2022-11-04T03:26:29.609Z,4.33
2022-11-04T03:29:05.659Z,5.03
2022-11-04T03:31:45.045Z,4.70
2022-11-04T03:34:12.817Z,5.10
2022-11-04T03:36:40.627Z,4.60
2022-11-04T03:39:08.337Z,4.53
2022-11-04T03:41:41.781Z,5.17
2022-11-04T03:44:09.660Z,4.80
2022-11-04T03:46:39.807Z,4.77
2022-11-04T03:49:09.792Z,5.07
2022-11-04T03:51:37.745Z,4.60
2022-11-04T03:54:06.723Z,5.07
2022-11-04T03:56:54.235Z,5.50
2022-11-04T03:59:40.034Z,4.57
2022-11-04T04:02:15.984Z,4.93
2022-11-04T04:04:56.037Z,5.77
2022-11-04T04:07:32.784Z,5.07
2022-11-04T04:10:25.937Z,5.13
2022-11-04T04:12:58.996Z,5.47
2022-11-04T04:15:32.082Z,5.47
2022-11-04T04:18:04.638Z,5.00
2022-11-04T04:20:36.762Z,5.30
2022-11-04T04:23:29.568Z,5.73
2022-11-04T04:26:19.715Z,5.90
2022-11-04T04:28:48.622Z,5.40
2022-11-04T04:31:38.196Z,5.63
2022-11-04T04:34:08.208Z,5.67
2022-11-04T04:36:43.858Z,5.70
2022-11-04T04:39:32.384Z,5.47
2022-11-04T04:42:17.699Z,4.97
2022-11-04T04:45:06.813Z,5.57
2022-11-04T04:47:44.044Z,5.37
2022-11-04T04:50:15.588Z,6.13
2022-11-04T04:52:45.591Z,6.23
2022-11-04T04:55:14.486Z,4.47
2022-11-04T04:57:42.204Z,5.80
2022-11-04T05:00:13.423Z,5.50
2022-11-04T05:02:41.212Z,5.53
2022-11-04T05:05:10.497Z,6.17
2022-11-04T05:07:39.854Z,5.93
2022-11-04T05:10:09.048Z,5.90
2022-11-04T05:12:54.614Z,6.00
2022-11-04T05:15:22.695Z,5.90
2022-11-04T05:17:55.097Z,5.57
2022-11-04T05:20:22.845Z,5.90
2022-11-04T05:22:51.916Z,6.20
2022-11-04T05:25:19.643Z,5.67
2022-11-04T05:27:47.378Z,6.20
2022-11-04T05:30:15.117Z,5.90
2022-11-04T05:32:42.800Z,5.60
2022-11-04T05:35:10.603Z,6.00
2022-11-04T05:37:38.326Z,5.70
2022-11-04T05:40:08.633Z,5.57
2022-11-04T05:42:36.810Z,5.40
2022-11-04T05:45:07.444Z,6.13
2022-11-04T05:47:35.282Z,5.57
2022-11-04T05:50:03.028Z,6.07
2022-11-04T05:52:30.718Z,6.27
2022-11-04T05:54:58.430Z,6.50
2022-11-04T05:57:27.528Z,6.13
2022-11-04T05:59:55.286Z,6.17
2022-11-04T06:02:23.148Z,6.53
2022-11-04T06:04:51.092Z,6.50
2022-11-04T06:07:18.817Z,5.67
2022-11-04T06:09:46.542Z,6.27
2022-11-04T06:12:16.711Z,5.90
2022-11-04T06:14:45.985Z,6.20
2022-11-04T06:17:16.620Z,6.33
2022-11-04T06:19:44.791Z,6.40
2022-11-04T06:22:13.537Z,6.63
2022-11-04T06:24:41.845Z,6.30
2022-11-04T06:27:10.220Z,6.17
2022-11-04T06:29:41.007Z,6.80
2022-11-04T06:32:10.838Z,6.27
2022-11-04T06:34:39.031Z,6.97
2022-11-04T06:37:06.943Z,6.17
2022-11-04T06:39:35.293Z,6.50
2022-11-04T06:42:03.278Z,5.73
2022-11-04T06:44:31.376Z,6.73
2022-11-04T06:46:59.131Z,6.47
2022-11-04T06:49:30.546Z,6.33
2022-11-04T06:51:58.269Z,6.57
2022-11-04T06:54:30.471Z,6.73
2022-11-04T06:56:58.642Z,6.57
2022-11-04T06:59:29.889Z,6.50
2022-11-04T07:01:58.113Z,7.40
2022-11-04T07:04:25.899Z,6.97
2022-11-04T07:06:58.212Z,7.20
2022-11-04T07:09:25.932Z,6.93
2022-11-04T07:11:53.860Z,7.80
2022-11-04T07:14:21.789Z,7.87
2022-11-04T07:16:51.336Z,7.10
2022-11-04T07:19:19.209Z,7.23
2022-11-04T07:21:46.967Z,7.73
2022-11-04T07:24:16.099Z,7.87
2022-11-04T07:26:43.797Z,7.83
2022-11-04T07:29:12.091Z,8.60
2022-11-04T07:31:39.916Z,8.47
2022-11-04T07:34:07.714Z,8.23
2022-11-04T07:36:35.525Z,7.50
2022-11-04T07:39:03.231Z,8.10
2022-11-04T07:41:32.259Z,8.30
2022-11-04T07:44:00.993Z,9.13
2022-11-04T07:46:28.769Z,8.77
2022-11-04T07:48:59.010Z,8.43
2022-11-04T07:51:28.056Z,8.37
2022-11-04T07:53:56.500Z,8.17
2022-11-04T07:56:24.202Z,8.23
2022-11-04T07:58:53.810Z,9.33
2022-11-04T08:01:24.240Z,9.60
2022-11-04T08:03:53.204Z,8.43
2022-11-04T08:06:22.325Z,9.57
2022-11-04T08:08:53.927Z,8.87
2022-11-04T08:11:25.326Z,9.83
2022-11-04T08:13:55.017Z,9.23
2022-11-04T08:16:27.598Z,10.40
2022-11-04T08:19:01.815Z,9.60
2022-11-04T08:21:33.848Z,9.33
2022-11-04T08:24:03.416Z,9.53
2022-11-04T08:26:31.984Z,10.03
2022-11-04T08:29:02.501Z,9.33
2022-11-04T08:31:32.027Z,9.27
2022-11-04T08:33:59.762Z,9.20
2022-11-04T08:36:29.718Z,10.37
2022-11-04T08:38:58.041Z,10.60
2022-11-04T08:41:29.012Z,9.93
2022-11-04T08:44:00.056Z,9.20
2022-11-04T08:46:34.347Z,8.80
2022-11-04T08:49:07.076Z,10.20
2022-11-04T08:51:39.760Z,9.83
2022-11-04T08:54:07.826Z,8.97
2022-11-04T08:56:37.608Z,9.27
2022-11-04T08:59:06.718Z,9.17
2022-11-04T09:01:37.587Z,8.23
2022-11-04T09:04:05.619Z,8.83
2022-11-04T09:06:35.981Z,9.17
2022-11-04T09:09:04.904Z,9.30
2022-11-04T09:11:33.964Z,9.33
2022-11-04T09:14:02.215Z,8.63
2022-11-04T09:16:31.285Z,8.70
2022-11-04T09:19:00.470Z,8.33
2022-11-04T09:21:28.726Z,8.73
2022-11-04T09:23:57.165Z,8.73
2022-11-04T09:26:25.905Z,8.37
2022-11-04T09:28:56.072Z,8.37
2022-11-04T09:31:26.537Z,7.53
2022-11-04T09:33:55.452Z,7.63
2022-11-04T09:36:24.935Z,7.67
2022-11-04T09:38:54.606Z,7.93
2022-11-04T09:41:54.972Z,7.33
2022-11-04T09:44:25.379Z,6.43
2022-11-04T09:46:57.752Z,7.03
2022-11-04T09:49:28.626Z,7.23
2022-11-04T09:52:00.503Z,6.53
2022-11-04T09:54:35.833Z,5.80
2022-11-04T09:57:05.578Z,6.37
2022-11-04T09:59:35.384Z,6.63
2022-11-04T10:02:22.438Z,6.30
2022-11-04T10:05:00.377Z,6.60
2022-11-04T10:07:42.463Z,6.20
2022-11-04T10:10:18.787Z,5.40
2022-11-04T10:13:11.651Z,5.40
2022-11-04T10:15:58.534Z,5.67
2022-11-04T10:18:44.719Z,5.73
2022-11-04T10:21:26.077Z,5.63
2022-11-04T10:24:18.651Z,5.40
2022-11-04T10:26:48.032Z,5.10
2022-11-04T10:29:17.922Z,5.17
2022-11-04T10:31:48.828Z,5.30
2022-11-04T10:34:27.640Z,4.90
2022-11-04T10:36:57.022Z,4.93
2022-11-04T10:39:31.066Z,4.97
2022-11-04T10:41:59.297Z,5.30
2022-11-04T10:44:33.025Z,5.00
2022-11-04T10:47:12.709Z,4.93
2022-11-04T10:50:21.815Z,4.60
2022-11-04T10:52:41.830Z,4.87
2022-11-04T10:55:20.697Z,4.70
2022-11-04T10:57:48.491Z,4.30
2022-11-04T11:00:35.336Z,3.97
2022-11-04T11:03:03.127Z,3.87
2022-11-04T11:05:31.620Z,3.73
2022-11-04T11:07:59.810Z,4.00
2022-11-04T11:10:31.836Z,3.67
2022-11-04T11:13:02.165Z,4.20
2022-11-04T11:15:35.043Z,4.07
2022-11-04T11:18:22.416Z,3.40
2022-11-04T11:20:52.310Z,3.90
2022-11-04T11:23:42.086Z,3.60
2022-11-04T11:26:16.869Z,3.50
2022-11-04T11:28:54.511Z,3.50
2022-11-04T11:31:29.817Z,3.30
2022-11-04T11:34:01.213Z,3.10
2022-11-04T11:36:32.323Z,3.47
2022-11-04T11:39:06.227Z,3.30
2022-11-04T11:41:52.886Z,3.40
2022-11-04T11:44:28.622Z,3.30
2022-11-04T11:46:58.802Z,3.97
2022-11-04T11:49:29.070Z,3.23
2022-11-04T11:51:57.681Z,3.07
2022-11-04T11:54:33.523Z,3.27
2022-11-04T11:57:37.109Z,3.07
2022-11-04T12:03:05.265Z,2.87
2022-11-04T12:11:51.409Z,3.10
2022-11-04T12:14:32.450Z,3.20
2022-11-04T12:17:09.096Z,3.07
2022-11-04T12:19:49.958Z,2.83
2022-11-04T12:22:29.670Z,3.00
2022-11-04T12:25:06.287Z,3.10
2022-11-04T12:27:40.204Z,2.67
2022-11-04T12:30:14.161Z,2.90
2022-11-04T12:32:53.924Z,3.20
2022-11-04T12:35:50.380Z,3.63
2022-11-04T12:38:45.467Z,3.30
2022-11-04T12:44:20.921Z,3.27
2022-11-04T12:46:58.174Z,3.37
2022-11-04T12:49:58.675Z,3.83
2022-11-04T12:52:43.501Z,3.53
2022-11-04T12:55:33.162Z,3.50
2022-11-04T12:58:13.272Z,3.50
2022-11-04T13:00:44.986Z,3.30
2022-11-04T13:03:17.950Z,3.33
2022-11-04T13:05:52.461Z,3.27
2022-11-04T13:08:25.541Z,3.07
2022-11-04T13:10:57.206Z,3.83
2022-11-04T13:13:32.144Z,3.50
2022-11-04T13:16:08.185Z,3.80
2022-11-04T13:18:41.462Z,3.57
2022-11-04T13:21:14.125Z,3.47
2022-11-04T13:23:50.057Z,3.50
2022-11-04T13:26:18.982Z,3.40
2022-11-04T13:29:08.881Z,3.87
2022-11-04T13:31:48.095Z,4.27
2022-11-04T13:34:25.863Z,3.40
2022-11-04T13:37:03.561Z,3.53
2022-11-04T13:39:36.596Z,3.77
2022-11-04T13:42:34.352Z,3.67
2022-11-04T13:45:11.317Z,3.87
2022-11-04T13:47:48.606Z,3.97
2022-11-04T13:50:34.022Z,3.20
2022-11-04T13:53:02.108Z,3.70
2022-11-04T13:55:30.192Z,3.83
2022-11-04T13:58:00.683Z,3.77
2022-11-04T14:00:29.669Z,3.93
2022-11-04T14:03:00.060Z,3.67
2022-11-04T14:06:04.079Z,4.00
2022-11-04T14:08:32.060Z,4.03
2022-11-04T14:11:11.949Z,4.10
2022-11-04T14:14:17.012Z,4.33
2022-11-04T14:16:46.359Z,4.20
2022-11-04T14:19:47.069Z,4.07
2022-11-04T14:22:18.872Z,4.17
2022-11-04T14:24:56.040Z,3.87
2022-11-04T14:27:31.697Z,4.20
2022-11-04T14:30:00.013Z,4.17
2022-11-04T14:32:35.790Z,4.17
2022-11-04T14:35:07.080Z,3.93
2022-11-04T14:37:37.669Z,3.87
2022-11-04T14:40:08.847Z,4.47
2022-11-04T14:42:47.048Z,4.33
2022-11-04T14:45:22.017Z,3.90
2022-11-04T14:47:53.225Z,4.13
2022-11-04T14:50:24.771Z,4.30
2022-11-04T14:52:57.745Z,4.17
2022-11-04T14:55:28.235Z,4.13
2022-11-04T14:58:23.899Z,3.90
2022-11-04T15:00:54.824Z,3.73
2022-11-04T15:06:15.137Z,4.73
2022-11-04T15:08:46.835Z,5.23
2022-11-04T15:11:17.869Z,5.47
2022-11-04T15:28:47.219Z,7.50
2022-11-04T15:31:20.818Z,9.13
2022-11-04T15:33:51.625Z,10.17
2022-11-04T15:36:21.729Z,9.70
2022-11-04T15:38:54.583Z,7.70
2022-11-04T15:41:41.366Z,7.50
2022-11-04T15:44:19.074Z,6.23
2022-11-04T15:46:52.359Z,5.63
2022-11-04T15:49:24.693Z,5.53
2022-11-04T15:51:55.828Z,5.70
2022-11-04T15:58:13.022Z,5.33
2022-11-04T16:00:42.555Z,5.30
2022-11-04T16:03:20.586Z,5.53
2022-11-04T16:06:03.803Z,6.00
2022-11-04T16:08:33.209Z,5.47
2022-11-04T16:11:13.548Z,5.43
2022-11-04T16:13:42.083Z,5.90
2022-11-04T16:16:23.028Z,5.53
2022-11-04T16:18:54.558Z,5.70
2022-11-04T16:21:25.959Z,6.00
2022-11-04T16:23:57.838Z,5.90
2022-11-04T16:26:28.579Z,6.10
2022-11-04T16:28:57.964Z,6.60
2022-11-04T16:31:29.641Z,6.30
2022-11-04T16:33:57.354Z,6.27
2022-11-04T16:36:28.549Z,6.57
2022-11-04T16:39:00.446Z,6.50
2022-11-04T16:41:30.194Z,6.37
2022-11-04T16:43:59.204Z,5.83
2022-11-04T16:46:31.190Z,6.00
2022-11-04T16:48:58.921Z,6.17
2022-11-04T16:51:26.745Z,6.23
2022-11-04T16:53:55.608Z,6.13
2022-11-04T16:56:25.743Z,5.90
2022-11-04T16:58:53.816Z,5.97
2022-11-04T17:31:19.733Z,5.03
2022-11-04T17:33:47.678Z,5.80
2022-11-04T17:36:19.685Z,4.90
2022-11-04T17:38:50.173Z,4.60
2022-11-04T17:41:35.304Z,5.20
2022-11-04T17:44:03.336Z,4.90
2022-11-04T17:46:38.832Z,4.97
2022-11-04T17:49:12.824Z,5.27
2022-11-04T17:51:41.780Z,5.10
2022-11-04T17:54:09.952Z,4.80
2022-11-04T17:56:38.943Z,4.87
2022-11-04T17:59:07.169Z,4.77
2022-11-04T18:01:37.746Z,4.73
2022-11-04T18:04:05.735Z,5.23
2022-11-04T18:06:39.614Z,5.10
2022-11-04T18:09:07.584Z,5.03
2022-11-04T18:11:52.692Z,5.40
2022-11-04T18:14:20.439Z,5.07
2022-11-04T18:16:50.796Z,5.37
2022-11-04T18:19:19.697Z,5.17
2022-11-04T18:21:49.011Z,5.20
2022-11-04T18:24:17.378Z,6.03
2022-11-04T18:26:45.278Z,6.43
2022-11-04T18:29:13.138Z,5.70
2022-11-04T18:31:47.755Z,5.20
2022-11-04T18:34:20.570Z,5.07
2022-11-04T18:36:49.337Z,5.20
2022-11-04T18:39:19.055Z,5.57
2022-11-04T18:41:47.162Z,5.00
2022-11-04T18:44:17.569Z,4.90
2022-11-04T18:46:45.750Z,5.40
2022-11-04T18:49:14.192Z,5.10
2022-11-04T18:51:43.554Z,4.67
2022-11-04T18:54:14.697Z,4.40
2022-11-04T18:56:42.484Z,3.97
2022-11-04T18:59:10.572Z,4.60
2022-11-04T19:01:38.948Z,4.30
2022-11-04T19:04:07.180Z,4.73
2022-11-04T19:06:40.097Z,4.63
2022-11-04T19:09:44.745Z,5.27
2022-11-04T19:12:12.502Z,4.17
2022-11-04T19:14:40.375Z,3.10
2022-11-04T19:17:08.213Z,2.77
2022-11-04T19:19:36.861Z,2.90
2022-11-04T19:22:04.580Z,2.70
2022-11-04T19:24:34.081Z,2.40
2022-11-04T19:27:01.796Z,3.00
2022-11-04T19:29:29.823Z,2.47
2022-11-04T19:31:57.614Z,2.23
2022-11-04T19:34:25.466Z,2.50
2022-11-04T19:36:53.209Z,2.90
2022-11-04T19:39:20.922Z,2.60
2022-11-04T19:42:07.333Z,2.50
2022-11-04T19:44:35.063Z,2.93
2022-11-04T19:47:02.831Z,2.87
2022-11-04T19:49:31.655Z,2.87
2022-11-04T19:51:59.828Z,2.80
2022-11-04T19:54:28.234Z,2.77
2022-11-04T19:56:58.036Z,2.70
2022-11-04T19:59:25.777Z,2.63
2022-11-04T20:01:53.767Z,3.70
2022-11-04T20:04:21.706Z,3.10
2022-11-04T20:06:49.407Z,2.80
2022-11-04T20:09:20.729Z,2.80
2022-11-04T20:12:07.755Z,2.60
2022-11-04T20:14:36.878Z,2.47
2022-11-04T20:17:06.298Z,2.87
2022-11-04T20:19:34.890Z,2.90
2022-11-04T20:22:03.397Z,2.80
2022-11-04T20:24:31.366Z,3.20
2022-11-04T20:26:59.207Z,3.80
2022-11-04T20:29:26.984Z,3.47
2022-11-04T20:31:59.238Z,3.30
2022-11-04T20:34:32.586Z,3.37
2022-11-04T20:37:01.538Z,3.17
2022-11-04T20:39:29.748Z,3.27
2022-11-04T20:41:57.538Z,3.13
2022-11-04T20:44:25.526Z,3.17
2022-11-04T20:46:53.245Z,3.53
2022-11-04T20:49:22.400Z,3.33
2022-11-04T20:51:54.701Z,3.60
2022-11-04T20:54:23.384Z,3.60
2022-11-04T20:56:51.109Z,3.53
2022-11-04T20:59:18.865Z,3.50
2022-11-04T21:01:48.626Z,4.13
2022-11-04T21:04:19.343Z,3.70
2022-11-04T21:06:49.876Z,3.80
2022-11-04T21:09:19.077Z,3.60
2022-11-04T21:11:46.878Z,3.80
2022-11-04T21:14:16.938Z,4.17
2022-11-04T21:16:45.125Z,4.13
2022-11-04T21:19:13.361Z,3.90
2022-11-04T21:21:42.426Z,4.00
2022-11-04T21:24:14.532Z,3.87
2022-11-04T21:26:42.600Z,4.57
2022-11-04T21:29:12.883Z,3.70
2022-11-04T21:31:41.435Z,3.53
2022-11-04T21:34:09.354Z,3.87
2022-11-04T21:36:44.594Z,3.60
2022-11-04T21:39:13.743Z,3.77
2022-11-04T21:41:41.542Z,3.37
2022-11-04T21:44:11.786Z,3.73
2022-11-04T21:46:39.740Z,3.33
2022-11-04T21:49:07.526Z,3.40
2022-11-04T21:51:35.449Z,3.37
2022-11-04T21:54:07.393Z,3.10
2022-11-04T21:56:36.738Z,3.10
2022-11-04T21:59:05.186Z,3.40
2022-11-04T22:01:35.089Z,3.10
2022-11-04T22:04:03.556Z,3.00
2022-11-04T22:06:35.092Z,3.13
2022-11-04T22:09:04.953Z,3.33
2022-11-04T22:11:33.759Z,2.77
2022-11-04T22:14:04.867Z,3.40
2022-11-04T22:16:34.924Z,2.93
2022-11-04T22:19:05.109Z,2.97
2022-11-04T22:21:33.591Z,2.70
2022-11-04T22:24:01.891Z,2.87
2022-11-04T22:26:32.549Z,2.60
2022-11-04T22:29:04.019Z,2.80
2022-11-04T22:31:33.322Z,3.47
2022-11-04T22:34:02.793Z,2.70
2022-11-04T22:36:34.754Z,2.27
2022-11-04T22:39:03.307Z,2.60
2022-11-04T22:41:32.643Z,2.60
2022-11-04T22:44:00.454Z,2.43
2022-11-04T22:46:31.842Z,2.50
2022-11-04T22:49:00.638Z,2.87
2022-11-04T22:51:29.692Z,2.73
2022-11-04T22:54:02.855Z,2.40
2022-11-04T22:56:32.591Z,2.33
2022-11-04T22:59:00.428Z,2.33
2022-11-04T23:01:31.600Z,2.80
2022-11-04T23:03:59.712Z,2.70
2022-11-04T23:06:27.463Z,2.60
2022-11-04T23:08:59.709Z,2.13
2022-11-04T23:11:46.699Z,2.60
2022-11-04T23:14:33.515Z,2.60
2022-11-04T23:17:20.287Z,3.10
2022-11-04T23:19:48.099Z,2.67
2022-11-04T23:22:33.393Z,2.70
2022-11-04T23:25:07.275Z,2.77
2022-11-04T23:27:52.632Z,2.80
2022-11-04T23:30:25.425Z,2.20
2022-11-04T23:32:58.483Z,2.20
2022-11-04T23:35:45.918Z,2.50
2022-11-04T23:38:13.701Z,2.70
2022-11-04T23:40:42.144Z,2.90
2022-11-04T23:43:09.631Z,2.60
2022-11-04T23:45:57.592Z,2.57
2022-11-04T23:48:44.186Z,2.70
2022-11-04T23:51:30.046Z,2.83
2022-11-04T23:54:15.451Z,2.50
2022-11-04T23:57:00.691Z,2.40
2022-11-04T23:59:45.880Z,2.87
